AWG651R EGKK-LROP
Flight info
| Callsign | AWG651R |
|---|---|
| Flight time | N/A |
| Altitude | 39000 |
| Route | MIMFO Y312 DVR UL9 KONAN DCT KOK UL607 REMBA DCT MATUG DCT BOMBI DCT TENLO DCT DEXIT DCT PESAT DCT LAMIT DCT TOSVI |
| Aircraft | A20N/M-SDE2E3FGHIRWXY/LB1 |
Departure
| Time | 2026-04-14 15:36 |
|---|---|
| Airport | London Gatwick Airport (EGKK) |
Arrival
| Time | N/A |
|---|---|
| Airport | Bucharest Henri Coandă International Airport (LROP) |
| Time | Latitude | Longitude | Altitude | Speed | Heading |
|---|---|---|---|---|---|
| 2026-04-14 14:47 | 51.15971 | -0.17149 | 195 ft | 0 kts | 323° |
| 2026-04-14 15:17 | 51.15960 | -0.17135 | 219 ft | 3 kts | 319° |
| 2026-04-14 15:17 | 51.15947 | -0.17116 | 219 ft | 3 kts | 319° |
| 2026-04-14 15:17 | 51.15933 | -0.17098 | 215 ft | 3 kts | 319° |
| 2026-04-14 15:18 | 51.15923 | -0.17082 | 216 ft | 0 kts | 296° |
| 2026-04-14 15:18 | 51.15922 | -0.17077 | 215 ft | 3 kts | 289° |
| 2026-04-14 15:18 | 51.15920 | -0.17048 | 214 ft | 3 kts | 249° |
| 2026-04-14 15:18 | 51.15929 | -0.17027 | 211 ft | 0 kts | 218° |
| 2026-04-14 15:19 | 51.15931 | -0.17024 | 211 ft | 0 kts | 218° |
| 2026-04-14 15:20 | 51.15931 | -0.17025 | 211 ft | 1 kts | 218° |
| 2026-04-14 15:21 | 51.15911 | -0.17048 | 213 ft | 6 kts | 213° |
| 2026-04-14 15:21 | 51.15861 | -0.17082 | 208 ft | 9 kts | 192° |
| 2026-04-14 15:21 | 51.15800 | -0.17082 | 214 ft | 9 kts | 170° |
| 2026-04-14 15:21 | 51.15744 | -0.17062 | 211 ft | 8 kts | 166° |
| 2026-04-14 15:22 | 51.15686 | -0.17042 | 211 ft | 8 kts | 171° |
| 2026-04-14 15:22 | 51.15641 | -0.17078 | 210 ft | 7 kts | 245° |
| 2026-04-14 15:22 | 51.15628 | -0.17152 | 208 ft | 7 kts | 256° |
| 2026-04-14 15:22 | 51.15618 | -0.17223 | 219 ft | 6 kts | 256° |
| 2026-04-14 15:23 | 51.15606 | -0.17290 | 209 ft | 6 kts | 248° |
| 2026-04-14 15:23 | 51.15562 | -0.17321 | 213 ft | 9 kts | 176° |
| 2026-04-14 15:23 | 51.15485 | -0.17296 | 208 ft | 13 kts | 167° |
| 2026-04-14 15:23 | 51.15406 | -0.17269 | 213 ft | 11 kts | 169° |
| 2026-04-14 15:24 | 51.15336 | -0.17247 | 209 ft | 10 kts | 167° |
| 2026-04-14 15:24 | 51.15269 | -0.17230 | 214 ft | 9 kts | 201° |
| 2026-04-14 15:24 | 51.15216 | -0.17272 | 214 ft | 8 kts | 186° |
| 2026-04-14 15:24 | 51.15174 | -0.17238 | 215 ft | 3 kts | 145° |
| 2026-04-14 15:25 | 51.15173 | -0.17228 | 220 ft | 1 kts | 91° |
| 2026-04-14 15:25 | 51.15181 | -0.17188 | 215 ft | 7 kts | 72° |
| 2026-04-14 15:25 | 51.15196 | -0.17096 | 208 ft | 9 kts | 77° |
| 2026-04-14 15:25 | 51.15205 | -0.17032 | 216 ft | 1 kts | 77° |
| 2026-04-14 15:26 | 51.15205 | -0.17030 | 215 ft | 0 kts | 77° |
| 2026-04-14 15:29 | 51.15206 | -0.17023 | 214 ft | 3 kts | 77° |
| 2026-04-14 15:29 | 51.15214 | -0.16966 | 208 ft | 6 kts | 77° |
| 2026-04-14 15:29 | 51.15217 | -0.16947 | 218 ft | 0 kts | 77° |
| 2026-04-14 15:30 | 51.15218 | -0.16941 | 216 ft | 3 kts | 77° |
| 2026-04-14 15:30 | 51.15221 | -0.16920 | 213 ft | 0 kts | 77° |
| 2026-04-14 15:31 | 51.15221 | -0.16919 | 213 ft | 1 kts | 77° |
| 2026-04-14 15:31 | 51.15224 | -0.16875 | 209 ft | 5 kts | 90° |
| 2026-04-14 15:31 | 51.15223 | -0.16866 | 209 ft | 0 kts | 94° |
| 2026-04-14 15:33 | 51.15223 | -0.16858 | 209 ft | 3 kts | 98° |
| 2026-04-14 15:34 | 51.15201 | -0.16816 | 216 ft | 7 kts | 147° |
| 2026-04-14 15:34 | 51.15139 | -0.16813 | 216 ft | 11 kts | 207° |
| 2026-04-14 15:34 | 51.15111 | -0.16884 | 216 ft | 0 kts | 258° |
| 2026-04-14 15:35 | 51.15105 | -0.16931 | 210 ft | 23 kts | 257° |
| 2026-04-14 15:35 | 51.15017 | -0.17575 | 213 ft | 97 kts | 258° |
| 2026-04-14 15:36 | 51.14816 | -0.19030 | 256 ft | 165 kts | 256° |
| 2026-04-14 15:36 | 51.14600 | -0.20907 | 1001 ft | 170 kts | 252° |
| 2026-04-14 15:36 | 51.14348 | -0.22676 | 2185 ft | 161 kts | 249° |
| 2026-04-14 15:36 | 51.14068 | -0.24514 | 2811 ft | 182 kts | 250° |
| 2026-04-14 15:37 | 51.13767 | -0.26565 | 3313 ft | 201 kts | 255° |
| 2026-04-14 15:37 | 51.13703 | -0.28101 | 3730 ft | 211 kts | 269° |
| 2026-04-14 15:37 | 51.14530 | -0.31045 | 4532 ft | 237 kts | 311° |
| 2026-04-14 15:37 | 51.15463 | -0.32036 | 5025 ft | 246 kts | 334° |
| 2026-04-14 15:38 | 51.17738 | -0.32027 | 6035 ft | 259 kts | 24° |
| 2026-04-14 15:38 | 51.18737 | -0.30911 | 6584 ft | 261 kts | 49° |
| 2026-04-14 15:38 | 51.19560 | -0.28402 | 7395 ft | 259 kts | 77° |